createdAt,value
2019-06-27T00:01:36.265Z,5.23
2019-06-27T00:04:43.563Z,5.43
2019-06-27T00:07:51.984Z,6.33
2019-06-27T00:10:59.397Z,6.00
2019-06-27T00:14:07.872Z,5.63
2019-06-27T00:17:15.653Z,5.57
2019-06-27T00:20:23.180Z,5.90
2019-06-27T00:23:31.071Z,5.43
2019-06-27T00:26:38.539Z,4.57
2019-06-27T00:29:45.805Z,5.67
2019-06-27T00:32:53.434Z,6.23
2019-06-27T00:36:01.950Z,5.23
2019-06-27T00:39:09.191Z,5.13
2019-06-27T00:42:16.495Z,5.27
2019-06-27T00:45:23.838Z,4.73
2019-06-27T00:48:31.007Z,4.80
2019-06-27T00:51:38.283Z,5.03
2019-06-27T00:54:45.472Z,4.67
2019-06-27T00:57:53.038Z,5.00
2019-06-27T01:01:00.557Z,4.90
2019-06-27T01:04:07.728Z,4.90
2019-06-27T01:07:15.011Z,5.53
2019-06-27T01:10:22.755Z,5.13
2019-06-27T01:13:30.411Z,5.53
2019-06-27T01:16:38.109Z,4.90
2019-06-27T01:19:45.354Z,5.50
2019-06-27T01:22:52.917Z,5.73
2019-06-27T01:26:00.661Z,5.43
2019-06-27T01:29:07.821Z,4.80
2019-06-27T01:32:15.641Z,4.73
2019-06-27T01:35:23.332Z,4.67
2019-06-27T01:38:30.599Z,4.47
2019-06-27T01:41:38.230Z,4.67
2019-06-27T01:44:53.618Z,5.00
2019-06-27T01:48:01.151Z,5.07
2019-06-27T01:51:08.534Z,4.43
2019-06-27T01:54:15.946Z,4.80
2019-06-27T01:57:23.326Z,4.53
2019-06-27T02:00:31.601Z,4.63
2019-06-27T02:03:39.404Z,4.63
2019-06-27T02:06:46.807Z,4.63
2019-06-27T02:09:54.323Z,4.60
2019-06-27T02:13:02.037Z,4.67
2019-06-27T02:16:09.909Z,4.87
2019-06-27T02:19:17.911Z,4.53
2019-06-27T02:22:25.637Z,4.67
2019-06-27T02:25:33.416Z,4.50
2019-06-27T02:28:41.215Z,5.37
2019-06-27T02:31:48.873Z,4.40
2019-06-27T02:34:56.429Z,5.20
2019-06-27T02:38:03.936Z,4.60
2019-06-27T02:41:11.330Z,4.53
2019-06-27T02:44:18.614Z,5.03
2019-06-27T02:47:25.795Z,4.60
2019-06-27T02:50:33.518Z,4.50
2019-06-27T02:53:40.991Z,4.90
2019-06-27T02:56:48.385Z,4.83
2019-06-27T02:59:56.413Z,4.57
2019-06-27T03:03:04.014Z,4.37
2019-06-27T03:06:11.386Z,4.90
2019-06-27T03:09:18.772Z,4.53
2019-06-27T03:12:26.493Z,4.87
2019-06-27T03:15:34.038Z,4.70
2019-06-27T03:18:41.845Z,5.00
2019-06-27T03:21:49.432Z,4.73
2019-06-27T03:24:57.421Z,5.13
2019-06-27T03:28:04.936Z,4.50
2019-06-27T03:31:12.454Z,5.50
2019-06-27T03:34:20.126Z,5.87
2019-06-27T03:37:27.798Z,6.20
2019-06-27T03:40:35.622Z,5.93
2019-06-27T03:43:43.235Z,5.33
2019-06-27T03:46:51.416Z,6.23
2019-06-27T03:49:59.630Z,6.53
2019-06-27T03:53:12.721Z,6.13
2019-06-27T03:56:20.301Z,5.10
2019-06-27T03:59:28.231Z,5.40
2019-06-27T04:02:39.526Z,5.70
2019-06-27T04:05:47.281Z,5.57
2019-06-27T04:08:55.102Z,5.87
2019-06-27T04:12:02.469Z,5.67
2019-06-27T04:15:10.546Z,5.73
2019-06-27T04:18:17.933Z,5.27
2019-06-27T04:21:26.269Z,5.50
2019-06-27T04:25:01.024Z,5.47
2019-06-27T04:28:09.938Z,5.80
2019-06-27T04:31:17.438Z,6.43
2019-06-27T04:34:25.249Z,5.80
2019-06-27T04:37:32.929Z,5.40
2019-06-27T04:40:40.533Z,5.23
2019-06-27T04:43:48.061Z,5.30
2019-06-27T04:46:55.519Z,6.00
2019-06-27T04:50:03.411Z,5.83
2019-06-27T04:53:10.903Z,5.63
2019-06-27T04:56:18.085Z,4.83
2019-06-27T04:59:25.568Z,5.47
2019-06-27T05:02:33.150Z,6.00
2019-06-27T05:05:53.086Z,4.90
2019-06-27T05:09:01.994Z,6.03
2019-06-27T05:12:10.361Z,5.93
2019-06-27T05:15:18.835Z,5.23
2019-06-27T05:18:27.465Z,5.70
2019-06-27T05:21:35.495Z,5.70
2019-06-27T05:24:43.711Z,4.70
2019-06-27T05:27:51.521Z,5.80
2019-06-27T05:30:59.518Z,6.13
2019-06-27T05:34:07.419Z,4.40
2019-06-27T05:37:14.718Z,5.37
2019-06-27T05:40:22.793Z,4.87
2019-06-27T05:43:30.591Z,4.60
2019-06-27T05:46:38.266Z,5.43
2019-06-27T05:49:45.719Z,4.77
2019-06-27T05:52:52.889Z,5.27
2019-06-27T05:56:00.703Z,5.17
2019-06-27T05:59:08.275Z,5.20
2019-06-27T06:02:15.526Z,5.53
2019-06-27T06:05:23.503Z,5.07
2019-06-27T06:08:30.797Z,4.57
2019-06-27T06:11:37.951Z,5.20
2019-06-27T06:14:45.590Z,5.30
2019-06-27T06:17:52.871Z,5.10
2019-06-27T06:21:00.620Z,4.70
2019-06-27T06:24:08.073Z,5.10
2019-06-27T06:27:15.437Z,4.97
2019-06-27T06:30:23.783Z,5.00
2019-06-27T06:33:31.273Z,4.77
2019-06-27T06:36:39.081Z,5.00
2019-06-27T06:39:47.295Z,4.40
2019-06-27T06:42:59.321Z,5.33
2019-06-27T06:46:04.979Z,5.50
2019-06-27T06:49:12.848Z,5.63
2019-06-27T06:52:20.198Z,4.17
2019-06-27T06:55:27.462Z,4.70
2019-06-27T06:58:36.160Z,4.47
2019-06-27T07:01:45.688Z,4.30
2019-06-27T07:04:52.999Z,4.53
2019-06-27T07:08:00.409Z,5.13
2019-06-27T07:11:08.012Z,4.87
2019-06-27T07:14:15.562Z,4.57
2019-06-27T07:17:22.822Z,5.07
2019-06-27T07:20:30.478Z,5.43
2019-06-27T07:23:37.983Z,5.30
2019-06-27T07:26:45.157Z,5.00
2019-06-27T07:29:52.441Z,5.40
2019-06-27T07:33:00.053Z,4.80
2019-06-27T07:36:07.871Z,5.10
2019-06-27T07:39:15.286Z,6.10
2019-06-27T07:42:22.450Z,5.23
2019-06-27T07:45:29.729Z,5.93
2019-06-27T07:48:37.141Z,5.40
2019-06-27T07:51:45.039Z,5.90
2019-06-27T07:54:52.634Z,5.90
2019-06-27T07:58:00.008Z,5.53
2019-06-27T08:01:07.372Z,5.60
2019-06-27T08:04:14.619Z,6.67
2019-06-27T08:07:22.319Z,5.60
2019-06-27T08:10:30.014Z,5.80
2019-06-27T08:13:37.178Z,6.37
2019-06-27T08:16:44.596Z,6.67
2019-06-27T08:19:51.943Z,6.00
2019-06-27T08:22:59.330Z,5.60
2019-06-27T08:26:06.707Z,6.53
2019-06-27T08:29:14.061Z,5.90
2019-06-27T08:32:21.510Z,6.00
2019-06-27T08:35:28.853Z,6.60
2019-06-27T08:38:36.116Z,7.33
2019-06-27T08:41:43.468Z,7.43
2019-06-27T08:44:50.875Z,7.20
2019-06-27T08:47:58.124Z,7.30
2019-06-27T08:51:05.528Z,7.23
2019-06-27T08:54:12.892Z,7.57
2019-06-27T08:57:20.993Z,6.67
2019-06-27T09:00:28.515Z,7.00
2019-06-27T09:03:35.886Z,6.73
2019-06-27T09:06:43.201Z,7.70
2019-06-27T09:09:50.477Z,7.73
2019-06-27T09:12:57.751Z,7.40
2019-06-27T09:16:05.124Z,7.30
2019-06-27T09:19:12.385Z,6.93
2019-06-27T09:22:19.889Z,7.50
2019-06-27T09:25:27.256Z,8.30
2019-06-27T09:28:34.537Z,8.03
2019-06-27T09:31:41.828Z,9.27
2019-06-27T09:34:49.343Z,7.50
2019-06-27T09:37:57.362Z,7.47
2019-06-27T09:41:04.931Z,8.33
2019-06-27T09:44:12.475Z,8.37
2019-06-27T09:47:19.746Z,8.87
2019-06-27T09:50:27.221Z,8.30
2019-06-27T09:53:34.822Z,8.50
2019-06-27T09:56:42.864Z,8.07
2019-06-27T09:59:50.632Z,7.90
2019-06-27T10:02:58.338Z,8.23
2019-06-27T10:06:05.835Z,7.70
2019-06-27T10:09:13.340Z,6.90
2019-06-27T10:12:21.745Z,6.77
2019-06-27T10:15:29.144Z,7.67
2019-06-27T10:18:36.406Z,7.27
2019-06-27T10:21:43.676Z,8.00
2019-06-27T10:24:51.204Z,8.20
2019-06-27T10:27:58.373Z,8.17
2019-06-27T10:31:05.650Z,7.20
2019-06-27T10:34:12.941Z,7.47
2019-06-27T10:37:20.203Z,7.70
2019-06-27T10:40:27.772Z,7.90
2019-06-27T10:43:35.135Z,7.40
2019-06-27T10:46:42.792Z,8.63
2019-06-27T10:49:50.103Z,6.97
2019-06-27T10:52:57.678Z,7.20
2019-06-27T10:56:05.216Z,7.57
2019-06-27T10:59:12.480Z,8.70
2019-06-27T11:02:19.770Z,10.57
2019-06-27T11:05:27.335Z,10.40
2019-06-27T11:08:34.601Z,10.03
2019-06-27T11:11:41.860Z,11.70
2019-06-27T11:14:58.667Z,11.10
2019-06-27T11:17:58.316Z,10.43
2019-06-27T11:21:05.842Z,10.60
2019-06-27T11:24:13.547Z,10.40
2019-06-27T11:27:20.821Z,11.17
2019-06-27T11:30:28.292Z,11.83
2019-06-27T11:33:35.477Z,12.60
2019-06-27T11:36:46.459Z,10.83
2019-06-27T11:39:52.163Z,11.77
2019-06-27T11:42:59.653Z,11.87
2019-06-27T11:46:08.911Z,11.03
2019-06-27T11:49:16.666Z,11.97
2019-06-27T11:52:26.354Z,11.73
2019-06-27T11:55:34.144Z,14.43
2019-06-27T11:58:41.439Z,13.80
2019-06-27T12:01:48.933Z,12.20
2019-06-27T12:30:21.155Z,11.43
2019-06-27T12:33:28.576Z,10.27
2019-06-27T12:36:36.295Z,9.27
2019-06-27T12:39:43.430Z,9.70
2019-06-27T12:42:51.110Z,11.73
2019-06-27T12:45:59.193Z,11.70
2019-06-27T12:49:07.054Z,10.97
2019-06-27T12:52:15.256Z,12.50
2019-06-27T12:55:23.132Z,12.40
2019-06-27T12:58:30.870Z,10.93
2019-06-27T13:01:38.294Z,9.90
2019-06-27T13:04:45.804Z,9.97
2019-06-27T13:07:53.333Z,10.50
2019-06-27T13:11:01.061Z,10.33
2019-06-27T13:14:08.854Z,11.83
2019-06-27T13:17:16.259Z,10.90
2019-06-27T13:20:24.139Z,12.00
2019-06-27T13:23:31.896Z,11.63
2019-06-27T13:26:39.435Z,12.07
2019-06-27T13:29:47.762Z,11.17
2019-06-27T13:32:55.450Z,11.10
2019-06-27T13:36:03.124Z,9.47
2019-06-27T13:39:10.727Z,10.63
2019-06-27T13:42:18.585Z,11.20
2019-06-27T13:45:26.767Z,11.30
2019-06-27T13:48:34.769Z,9.97
2019-06-27T13:51:42.316Z,10.43
2019-06-27T13:54:49.961Z,11.27
2019-06-27T13:57:57.717Z,10.17
2019-06-27T14:01:05.358Z,10.87
2019-06-27T14:04:13.363Z,9.83
2019-06-27T14:07:21.714Z,9.60
2019-06-27T14:10:28.964Z,10.03
2019-06-27T14:13:36.319Z,9.63
2019-06-27T14:16:44.484Z,10.30
2019-06-27T14:19:51.773Z,9.73
2019-06-27T14:22:59.480Z,10.60
2019-06-27T14:26:06.958Z,10.50
2019-06-27T14:29:15.924Z,11.17
2019-06-27T14:32:24.075Z,10.57
2019-06-27T14:35:31.870Z,11.23
2019-06-27T14:38:39.205Z,10.80
2019-06-27T14:41:47.051Z,10.17
2019-06-27T14:44:54.833Z,10.77
2019-06-27T14:48:02.498Z,10.30
2019-06-27T14:51:09.826Z,10.73
2019-06-27T14:54:17.301Z,11.40
2019-06-27T14:57:25.991Z,11.70
2019-06-27T15:00:34.135Z,11.40
2019-06-27T15:03:42.573Z,11.40
2019-06-27T15:06:50.712Z,12.07
2019-06-27T15:09:58.610Z,11.70
2019-06-27T15:13:05.893Z,12.17
2019-06-27T15:16:13.399Z,12.33
2019-06-27T15:19:21.089Z,11.10
2019-06-27T15:22:28.773Z,12.37
2019-06-27T15:25:36.384Z,11.63
2019-06-27T15:28:44.085Z,11.33
2019-06-27T15:31:52.006Z,12.10
2019-06-27T15:34:59.579Z,11.87
2019-06-27T15:38:07.415Z,11.13
2019-06-27T15:41:15.076Z,11.73
2019-06-27T15:44:22.966Z,12.27
2019-06-27T15:47:30.660Z,12.50
2019-06-27T15:50:38.587Z,11.03
2019-06-27T15:53:46.577Z,11.93
2019-06-27T15:56:54.356Z,11.53
2019-06-27T16:00:02.402Z,11.17
2019-06-27T16:03:10.975Z,11.33
2019-06-27T16:06:18.759Z,11.63
2019-06-27T16:09:26.172Z,10.90
2019-06-27T16:12:34.086Z,10.97
2019-06-27T16:15:41.918Z,10.37
2019-06-27T16:18:49.517Z,10.13
2019-06-27T16:21:57.289Z,10.90
2019-06-27T16:25:05.728Z,10.37
2019-06-27T16:28:13.717Z,9.73
2019-06-27T16:31:21.268Z,10.53
2019-06-27T16:34:29.296Z,9.87
2019-06-27T16:37:38.109Z,9.67
2019-06-27T16:40:45.971Z,9.80
2019-06-27T16:43:54.071Z,9.23
2019-06-27T16:47:02.552Z,9.53
2019-06-27T16:50:10.383Z,9.77
2019-06-27T16:53:17.828Z,9.60
2019-06-27T16:56:25.543Z,9.17
2019-06-27T16:59:33.980Z,9.73
2019-06-27T17:02:41.657Z,9.63
2019-06-27T17:05:49.280Z,9.93
2019-06-27T17:08:56.968Z,8.73
2019-06-27T17:12:04.579Z,9.60
2019-06-27T17:15:12.569Z,9.33
2019-06-27T17:18:20.118Z,9.50
2019-06-27T17:21:28.188Z,9.13
2019-06-27T17:24:35.837Z,8.83
2019-06-27T17:27:43.111Z,8.93
2019-06-27T17:30:50.770Z,9.50
2019-06-27T17:33:58.362Z,9.77
2019-06-27T17:37:06.046Z,9.73
2019-06-27T17:40:15.851Z,9.10
2019-06-27T17:43:24.036Z,9.57
2019-06-27T17:46:32.098Z,10.17
2019-06-27T17:49:39.884Z,10.40
2019-06-27T17:52:48.104Z,10.23
2019-06-27T17:55:55.795Z,9.67
2019-06-27T17:59:03.675Z,8.67
2019-06-27T18:02:11.186Z,8.90
2019-06-27T18:05:18.963Z,8.80
2019-06-27T18:08:26.673Z,8.23
2019-06-27T18:11:34.462Z,8.40
2019-06-27T18:14:41.982Z,7.50
2019-06-27T18:17:49.301Z,8.47
2019-06-27T18:20:57.163Z,8.23
2019-06-27T18:24:04.955Z,7.63
2019-06-27T18:27:12.240Z,8.67
2019-06-27T18:30:19.956Z,8.33
2019-06-27T18:33:28.383Z,8.07
2019-06-27T18:36:35.858Z,7.73
2019-06-27T18:39:43.149Z,7.53
2019-06-27T18:42:51.326Z,7.30
2019-06-27T18:45:59.704Z,6.17
2019-06-27T18:49:07.510Z,6.00
2019-06-27T18:52:15.519Z,6.67
2019-06-27T18:55:23.404Z,6.00
2019-06-27T18:58:31.197Z,5.73
2019-06-27T19:01:38.927Z,6.13
2019-06-27T19:04:46.403Z,5.87
2019-06-27T19:07:54.059Z,5.57
2019-06-27T19:11:02.281Z,4.20
2019-06-27T19:14:09.728Z,3.90
2019-06-27T19:17:18.681Z,3.27
2019-06-27T19:20:42.927Z,2.97
2019-06-27T19:24:10.102Z,2.60
2019-06-27T19:27:17.592Z,2.43
2019-06-27T19:30:24.981Z,3.03
2019-06-27T19:33:32.689Z,2.30
2019-06-27T19:36:40.110Z,2.50
2019-06-27T19:39:47.680Z,3.30
2019-06-27T19:42:55.575Z,1.97
2019-06-27T19:46:03.265Z,2.40
2019-06-27T19:49:11.097Z,1.67
2019-06-27T19:52:19.087Z,1.37
2019-06-27T19:55:26.985Z,1.47
2019-06-27T19:58:34.753Z,1.20
2019-06-27T20:01:42.500Z,1.17
2019-06-27T20:04:50.200Z,0.97
2019-06-27T20:07:57.885Z,0.90
2019-06-27T20:11:05.809Z,1.77
2019-06-27T20:14:13.408Z,1.10
2019-06-27T20:17:21.081Z,1.23
2019-06-27T20:20:28.531Z,1.00
2019-06-27T20:23:36.085Z,0.80
2019-06-27T20:26:43.573Z,1.13
2019-06-27T20:29:51.049Z,0.83
2019-06-27T20:32:58.586Z,0.97
2019-06-27T20:36:06.045Z,0.90
2019-06-27T20:39:13.361Z,0.70
2019-06-27T20:42:20.756Z,0.93
2019-06-27T20:45:29.012Z,0.73
2019-06-27T20:48:36.264Z,0.80
2019-06-27T20:51:43.875Z,0.87
2019-06-27T20:54:51.271Z,0.83
2019-06-27T20:58:02.671Z,1.10
2019-06-27T21:01:10.068Z,0.90
2019-06-27T21:04:17.858Z,1.10
2019-06-27T21:07:26.314Z,1.10
2019-06-27T21:10:33.897Z,0.87
2019-06-27T21:13:41.490Z,1.10
2019-06-27T21:16:49.007Z,1.03
2019-06-27T21:19:57.022Z,1.40
2019-06-27T21:23:04.655Z,0.90
2019-06-27T21:26:12.464Z,1.00
2019-06-27T21:29:19.896Z,1.00
2019-06-27T21:32:31.793Z,0.90
2019-06-27T21:35:37.558Z,0.93
2019-06-27T21:38:45.242Z,0.90
2019-06-27T21:41:57.591Z,1.13
2019-06-27T21:45:06.166Z,0.80
2019-06-27T21:48:13.747Z,0.87
2019-06-27T21:51:21.375Z,0.80
2019-06-27T21:54:29.016Z,0.80
2019-06-27T21:57:36.740Z,0.87
2019-06-27T22:00:44.979Z,1.10
2019-06-27T22:03:52.730Z,0.93
2019-06-27T22:07:01.700Z,0.70
2019-06-27T22:10:10.195Z,1.00
2019-06-27T22:13:17.712Z,0.87
2019-06-27T22:16:25.225Z,0.60
2019-06-27T22:19:32.917Z,0.80
2019-06-27T22:22:40.304Z,0.90
2019-06-27T22:25:47.868Z,0.83
2019-06-27T22:28:55.717Z,0.90
2019-06-27T22:32:03.172Z,0.60
2019-06-27T22:35:11.171Z,0.90
2019-06-27T22:38:37.432Z,0.73
2019-06-27T22:42:03.176Z,0.70
2019-06-27T22:45:29.542Z,0.90
2019-06-27T22:48:36.365Z,0.80
2019-06-27T22:52:15.762Z,1.00
2019-06-27T22:55:24.631Z,0.70
2019-06-27T22:58:31.804Z,0.80
2019-06-27T23:01:39.052Z,0.90
2019-06-27T23:04:46.758Z,0.90
2019-06-27T23:07:53.910Z,1.10
2019-06-27T23:11:01.334Z,1.10
2019-06-27T23:14:09.277Z,1.10
2019-06-27T23:17:16.462Z,1.00
2019-06-27T23:20:23.827Z,1.20
2019-06-27T23:23:31.519Z,0.90
2019-06-27T23:26:38.829Z,1.07
2019-06-27T23:29:46.229Z,0.90
2019-06-27T23:32:53.704Z,1.20
2019-06-27T23:36:00.899Z,1.10
2019-06-27T23:39:08.081Z,1.10
2019-06-27T23:42:15.636Z,1.40
2019-06-27T23:45:23.111Z,1.10
2019-06-27T23:48:30.269Z,1.00
2019-06-27T23:51:38.379Z,1.23
2019-06-27T23:54:46.046Z,1.33
2019-06-27T23:57:53.774Z,1.30
